LIPZDTTA

Guest
Details From LIPZ - Venezia Tessera
To DTTA - Carthage
Flight Number -
Tags Generated
Created
Modified
Stats Distance 528 nm / 977 km
Max Altitude 0 ft / 0 m
Waypoints 4
Social Downloads 1
Likes 0
Share VATSIM

Download

Looking for another format? Having issues loading an existing format? Contact us
Advertisement - Login to hide

Notes

Generated

Route

LIPZ ROXAN TUC07 DTTA

ID Type Via Altitude Latitude Longitude Leg Dist Tot Dist Heading (true) Name
O LIPZ APT - 0 ft / 0 m 45.49516˚ 12.33556˚ - 0 nm - -
ROXAN FIX - 0 ft / 0 m 40.82972˚ 11.21722˚ 284 nm 284 nm 190° / 190° -
TUC07 FIX - 0 ft / 0 m 36.96784˚ 10.24556˚ 236 nm 520 nm 191° / 191° -
O DTTA APT - 0 ft / 0 m 36.85426˚ 10.21769˚ 6 nm 527 nm 191° / 191° -

Altitude Profile

Advertisement - Login to hide

Weather


0- 5 10 15 20 25 30 35+ Temperature / ° C

Clouds and Precipitation
Forecast for 2017-12-15 00:00 UTC. Updated 2 hours ago

Ground ~20,000 ft ~40,000 ft Winds

LIPZ

Details ICAO LIPZ (VCE)
Name Venezia Tessera
Region Italy
Timezone Europe/Rome (UTC+1.0)
Stats Elevation 7 ft / 2 m (AMSL)
Location 45.504791° 12.349691°
Runways 2
Magnetic Variation 3.179° E

METAR

LIPZ 150020Z 34005KT 6000 SCT060 03/03 Q1001 NOSIG

Decode

TAF

TAF LIPZ 142300Z 1500/1606 VRB05KT 2000 BR SCT015 TEMPO 1500/1506 0600 BCFG BECMG 1506/1509 6000 SCT020 BECMG 1517/1519 0800 FG BKN005

Decode

Departure Runways

ID Width Length Bearing (true) Bearing (mag) Surface Threshold Offset Overrun Length
04L 148 ft / 45 m 9,112 ft / 2,777 m 42.01° 38.83° Asphalt 312 ft / 95 m 0 ft / 0 m
04R 148 ft / 45 m 10,834 ft / 3,302 m 41.99° 38.81° Asphalt 0 ft / 0 m 0 ft / 0 m
22L 148 ft / 45 m 10,834 ft / 3,302 m 222.01° 218.83° Asphalt 0 ft / 0 m 0 ft / 0 m
22R 148 ft / 45 m 9,112 ft / 2,777 m 222.02° 218.84° Asphalt 0 ft / 0 m 0 ft / 0 m

DTTA

Details ICAO DTTA (TUN)
Name CARTHAGE
Region Tunisia
Timezone Africa/Tunis (UTC+1.0)
Stats Elevation 22 ft / 7 m (AMSL)
Location 36.851267° 10.230027°
Runways 2
Magnetic Variation 2.403° E

METAR

DTTA 150000Z 14004KT CAVOK 09/02 Q1017 NOSIG

Decode

TAF

TAF DTTA 142300Z 1500/1524 24003KT 9999 FEW026= TAF DTMB 142300Z 1500/1524 17003KT 8000 NSC BECMG 1507/1509 23012KT

Decode

Destination Runways

ID Width Length Bearing (true) Bearing (mag) Surface Threshold Offset Overrun Length
01 148 ft / 45 m 10,502 ft / 3,201 m 12.29° 9.89° Asphalt 0 ft / 0 m 197 ft / 60 m
11 148 ft / 45 m 9,345 ft / 2,848 m 112.55° 110.15° Asphalt 0 ft / 0 m 643 ft / 196 m
19 148 ft / 45 m 10,502 ft / 3,201 m 192.29° 189.89° Asphalt 0 ft / 0 m 197 ft / 60 m
29 148 ft / 45 m 9,345 ft / 2,848 m 292.57° 290.17° Asphalt 657 ft / 200 m 197 ft / 60 m

Approach Navaids

Runway Type Ident Frequency Range Bearing (true) Bearing (mag) Slope Elevation
01 Glidescope TBL 111.10 MHz 10 nm / 19 km 10.00° 7.60° 3.00° 22 ft / 7 m (AMSL)
01 DME TBL 111.10 MHz 18 nm / 33 km - - - 22 ft / 7 m (AMSL)
19 Localiser TSI 110.30 MHz 18 nm / 33 km 192.29° 189.89° - 13 ft / 4 m (AMSL)
19 Glidescope TSI 110.30 MHz 10 nm / 19 km 192.29° 189.89° 3.00° 22 ft / 7 m (AMSL)
29 Localiser TKE 108.50 MHz 18 nm / 33 km 292.54° 290.14° - 22 ft / 7 m (AMSL)
29 Glidescope TKE 108.50 MHz 10 nm / 19 km 292.56° 290.15° 3.00° 22 ft / 7 m (AMSL)
29 DME TKE 108.50 MHz 18 nm / 33 km - - - 22 ft / 7 m (AMSL)

Popular Alternatives